sensor_id;sensor_type;location;lat;lon;timestamp;P1;durP1;ratioP1;P2;durP2;ratioP2
50821;SDS011;36794;51.212;6.980;2023-08-06T00:02:04;4.03;;;2.17;;
50821;SDS011;36794;51.212;6.980;2023-08-06T00:04:30;4.88;;;2.53;;
50821;SDS011;36794;51.212;6.980;2023-08-06T00:06:56;8.25;;;2.95;;
50821;SDS011;36794;51.212;6.980;2023-08-06T00:09:22;6.47;;;2.78;;
50821;SDS011;36794;51.212;6.980;2023-08-06T00:11:48;7.72;;;2.50;;
50821;SDS011;36794;51.212;6.980;2023-08-06T00:14:14;5.45;;;2.13;;
50821;SDS011;36794;51.212;6.980;2023-08-06T00:16:45;7.10;;;2.42;;
50821;SDS011;36794;51.212;6.980;2023-08-06T00:19:11;6.85;;;2.15;;
50821;SDS011;36794;51.212;6.980;2023-08-06T00:21:37;6.22;;;2.20;;
50821;SDS011;36794;51.212;6.980;2023-08-06T00:24:03;7.18;;;2.20;;
50821;SDS011;36794;51.212;6.980;2023-08-06T00:26:29;4.00;;;2.15;;
50821;SDS011;36794;51.212;6.980;2023-08-06T00:28:55;3.63;;;2.40;;
50821;SDS011;36794;51.212;6.980;2023-08-06T00:31:21;3.50;;;2.28;;
50821;SDS011;36794;51.212;6.980;2023-08-06T00:33:47;5.53;;;2.33;;
50821;SDS011;36794;51.212;6.980;2023-08-06T00:36:13;5.32;;;2.30;;
50821;SDS011;36794;51.212;6.980;2023-08-06T00:38:39;7.03;;;2.33;;
50821;SDS011;36794;51.212;6.980;2023-08-06T00:41:05;6.22;;;2.25;;
50821;SDS011;36794;51.212;6.980;2023-08-06T00:43:31;4.85;;;2.72;;
50821;SDS011;36794;51.212;6.980;2023-08-06T00:45:57;4.13;;;2.35;;
50821;SDS011;36794;51.212;6.980;2023-08-06T00:48:23;6.47;;;3.08;;
50821;SDS011;36794;51.212;6.980;2023-08-06T00:50:49;9.43;;;2.20;;
50821;SDS011;36794;51.212;6.980;2023-08-06T00:53:15;4.32;;;2.22;;
50821;SDS011;36794;51.212;6.980;2023-08-06T00:55:42;4.93;;;2.13;;
50821;SDS011;36794;51.212;6.980;2023-08-06T00:58:10;6.35;;;2.63;;
50821;SDS011;36794;51.212;6.980;2023-08-06T01:00:36;4.75;;;2.20;;
50821;SDS011;36794;51.212;6.980;2023-08-06T01:03:02;4.78;;;2.50;;
50821;SDS011;36794;51.212;6.980;2023-08-06T01:05:28;8.38;;;2.78;;
50821;SDS011;36794;51.212;6.980;2023-08-06T01:10:59;5.13;;;2.47;;
50821;SDS011;36794;51.212;6.980;2023-08-06T01:15:54;3.78;;;2.55;;
50821;SDS011;36794;51.212;6.980;2023-08-06T01:18:24;3.35;;;2.55;;
50821;SDS011;36794;51.212;6.980;2023-08-06T01:20:50;6.93;;;2.47;;
50821;SDS011;36794;51.212;6.980;2023-08-06T01:23:16;8.10;;;2.70;;
50821;SDS011;36794;51.212;6.980;2023-08-06T01:28:14;3.97;;;2.25;;
50821;SDS011;36794;51.212;6.980;2023-08-06T01:30:42;5.18;;;2.17;;
50821;SDS011;36794;51.212;6.980;2023-08-06T01:33:10;7.10;;;2.63;;
50821;SDS011;36794;51.212;6.980;2023-08-06T01:35:38;5.55;;;2.40;;
50821;SDS011;36794;51.212;6.980;2023-08-06T01:38:04;4.57;;;2.30;;
50821;SDS011;36794;51.212;6.980;2023-08-06T01:40:30;4.68;;;2.00;;
50821;SDS011;36794;51.212;6.980;2023-08-06T01:42:57;8.00;;;2.20;;
50821;SDS011;36794;51.212;6.980;2023-08-06T01:45:23;6.28;;;2.10;;
50821;SDS011;36794;51.212;6.980;2023-08-06T01:47:49;4.65;;;2.40;;
50821;SDS011;36794;51.212;6.980;2023-08-06T01:50:15;6.75;;;2.30;;
50821;SDS011;36794;51.212;6.980;2023-08-06T01:52:41;7.40;;;2.30;;
50821;SDS011;36794;51.212;6.980;2023-08-06T01:55:07;4.13;;;2.67;;
50821;SDS011;36794;51.212;6.980;2023-08-06T01:57:33;7.20;;;2.80;;
50821;SDS011;36794;51.212;6.980;2023-08-06T01:59:59;3.50;;;2.53;;
50821;SDS011;36794;51.212;6.980;2023-08-06T02:02:25;6.50;;;2.55;;
50821;SDS011;36794;51.212;6.980;2023-08-06T02:04:51;9.35;;;2.53;;
50821;SDS011;36794;51.212;6.980;2023-08-06T02:07:16;8.57;;;2.50;;
50821;SDS011;36794;51.212;6.980;2023-08-06T02:09:42;5.15;;;2.67;;
50821;SDS011;36794;51.212;6.980;2023-08-06T02:12:08;7.50;;;2.90;;
50821;SDS011;36794;51.212;6.980;2023-08-06T02:14:34;5.97;;;2.40;;
50821;SDS011;36794;51.212;6.980;2023-08-06T02:17:00;5.10;;;2.60;;
50821;SDS011;36794;51.212;6.980;2023-08-06T02:19:26;3.83;;;2.65;;
50821;SDS011;36794;51.212;6.980;2023-08-06T02:21:52;3.65;;;2.30;;
50821;SDS011;36794;51.212;6.980;2023-08-06T02:24:18;6.13;;;2.45;;
50821;SDS011;36794;51.212;6.980;2023-08-06T02:26:44;5.90;;;2.67;;
50821;SDS011;36794;51.212;6.980;2023-08-06T02:29:11;8.40;;;3.40;;
50821;SDS011;36794;51.212;6.980;2023-08-06T02:31:37;9.05;;;2.53;;
50821;SDS011;36794;51.212;6.980;2023-08-06T02:34:03;3.72;;;2.47;;
50821;SDS011;36794;51.212;6.980;2023-08-06T02:36:29;4.47;;;2.50;;
50821;SDS011;36794;51.212;6.980;2023-08-06T02:38:55;4.53;;;2.55;;
50821;SDS011;36794;51.212;6.980;2023-08-06T02:41:21;6.63;;;2.30;;
50821;SDS011;36794;51.212;6.980;2023-08-06T02:43:47;3.47;;;2.40;;
50821;SDS011;36794;51.212;6.980;2023-08-06T02:46:13;6.18;;;3.00;;
50821;SDS011;36794;51.212;6.980;2023-08-06T02:48:39;3.88;;;2.45;;
50821;SDS011;36794;51.212;6.980;2023-08-06T02:51:05;4.82;;;2.65;;
50821;SDS011;36794;51.212;6.980;2023-08-06T02:53:31;5.53;;;2.25;;
50821;SDS011;36794;51.212;6.980;2023-08-06T02:55:57;5.03;;;2.42;;
50821;SDS011;36794;51.212;6.980;2023-08-06T02:58:24;4.43;;;2.35;;
50821;SDS011;36794;51.212;6.980;2023-08-06T03:03:45;5.30;;;2.28;;
50821;SDS011;36794;51.212;6.980;2023-08-06T03:06:11;4.85;;;2.08;;
50821;SDS011;36794;51.212;6.980;2023-08-06T03:08:37;6.97;;;2.33;;
50821;SDS011;36794;51.212;6.980;2023-08-06T03:11:03;3.53;;;2.35;;
50821;SDS011;36794;51.212;6.980;2023-08-06T03:13:29;4.90;;;2.33;;
50821;SDS011;36794;51.212;6.980;2023-08-06T03:15:55;7.53;;;2.50;;
50821;SDS011;36794;51.212;6.980;2023-08-06T03:18:22;12.30;;;2.65;;
50821;SDS011;36794;51.212;6.980;2023-08-06T03:20:48;7.88;;;2.45;;
50821;SDS011;36794;51.212;6.980;2023-08-06T03:23:14;4.32;;;2.45;;
50821;SDS011;36794;51.212;6.980;2023-08-06T03:25:40;4.65;;;2.40;;
50821;SDS011;36794;51.212;6.980;2023-08-06T03:28:06;4.97;;;2.55;;
50821;SDS011;36794;51.212;6.980;2023-08-06T03:30:32;5.18;;;2.63;;
50821;SDS011;36794;51.212;6.980;2023-08-06T03:32:58;6.30;;;2.40;;
50821;SDS011;36794;51.212;6.980;2023-08-06T03:35:24;6.97;;;2.45;;
50821;SDS011;36794;51.212;6.980;2023-08-06T03:37:50;4.95;;;2.30;;
50821;SDS011;36794;51.212;6.980;2023-08-06T03:40:16;6.68;;;2.90;;
50821;SDS011;36794;51.212;6.980;2023-08-06T03:42:42;5.15;;;2.35;;
50821;SDS011;36794;51.212;6.980;2023-08-06T03:45:08;6.22;;;2.15;;
50821;SDS011;36794;51.212;6.980;2023-08-06T03:47:34;6.22;;;2.58;;
50821;SDS011;36794;51.212;6.980;2023-08-06T03:50:00;6.00;;;2.25;;
50821;SDS011;36794;51.212;6.980;2023-08-06T03:52:26;4.40;;;2.15;;
50821;SDS011;36794;51.212;6.980;2023-08-06T03:54:52;4.88;;;2.20;;
50821;SDS011;36794;51.212;6.980;2023-08-06T03:57:18;3.88;;;2.35;;
50821;SDS011;36794;51.212;6.980;2023-08-06T03:59:44;5.03;;;2.33;;
50821;SDS011;36794;51.212;6.980;2023-08-06T04:02:10;7.82;;;2.20;;
50821;SDS011;36794;51.212;6.980;2023-08-06T04:04:36;7.20;;;2.33;;
50821;SDS011;36794;51.212;6.980;2023-08-06T04:07:02;5.93;;;2.53;;
50821;SDS011;36794;51.212;6.980;2023-08-06T04:09:28;3.33;;;2.28;;
50821;SDS011;36794;51.212;6.980;2023-08-06T04:11:54;3.70;;;2.33;;
50821;SDS011;36794;51.212;6.980;2023-08-06T04:14:21;8.10;;;2.35;;
50821;SDS011;36794;51.212;6.980;2023-08-06T04:16:47;8.50;;;2.35;;
50821;SDS011;36794;51.212;6.980;2023-08-06T04:19:13;3.20;;;2.10;;
50821;SDS011;36794;51.212;6.980;2023-08-06T04:21:40;4.55;;;2.25;;
50821;SDS011;36794;51.212;6.980;2023-08-06T04:24:06;4.75;;;1.90;;
50821;SDS011;36794;51.212;6.980;2023-08-06T04:26:32;3.60;;;2.05;;
50821;SDS011;36794;51.212;6.980;2023-08-06T04:28:58;7.22;;;2.13;;
50821;SDS011;36794;51.212;6.980;2023-08-06T04:31:24;6.03;;;2.60;;
50821;SDS011;36794;51.212;6.980;2023-08-06T04:33:50;4.45;;;2.30;;
50821;SDS011;36794;51.212;6.980;2023-08-06T04:36:16;3.30;;;2.30;;
50821;SDS011;36794;51.212;6.980;2023-08-06T04:38:42;8.95;;;2.42;;
50821;SDS011;36794;51.212;6.980;2023-08-06T04:41:10;5.10;;;1.83;;
50821;SDS011;36794;51.212;6.980;2023-08-06T04:43:36;5.22;;;2.50;;
50821;SDS011;36794;51.212;6.980;2023-08-06T04:46:02;5.88;;;2.30;;
50821;SDS011;36794;51.212;6.980;2023-08-06T04:48:28;4.25;;;2.10;;
50821;SDS011;36794;51.212;6.980;2023-08-06T04:50:54;5.47;;;2.70;;
50821;SDS011;36794;51.212;6.980;2023-08-06T04:53:20;5.90;;;2.72;;
50821;SDS011;36794;51.212;6.980;2023-08-06T04:55:46;12.73;;;2.58;;
50821;SDS011;36794;51.212;6.980;2023-08-06T04:58:13;5.57;;;2.33;;
50821;SDS011;36794;51.212;6.980;2023-08-06T05:00:39;7.85;;;2.50;;
50821;SDS011;36794;51.212;6.980;2023-08-06T05:03:05;4.40;;;2.30;;
50821;SDS011;36794;51.212;6.980;2023-08-06T05:05:32;7.68;;;2.40;;
50821;SDS011;36794;51.212;6.980;2023-08-06T05:07:58;6.70;;;2.17;;
50821;SDS011;36794;51.212;6.980;2023-08-06T05:10:24;6.05;;;2.55;;
50821;SDS011;36794;51.212;6.980;2023-08-06T05:12:51;6.70;;;2.80;;
50821;SDS011;36794;51.212;6.980;2023-08-06T05:15:17;2.55;;;2.00;;
50821;SDS011;36794;51.212;6.980;2023-08-06T05:17:43;6.07;;;2.40;;
50821;SDS011;36794;51.212;6.980;2023-08-06T05:20:09;8.98;;;3.03;;
50821;SDS011;36794;51.212;6.980;2023-08-06T05:22:35;8.60;;;2.70;;
50821;SDS011;36794;51.212;6.980;2023-08-06T05:25:01;6.90;;;2.33;;
50821;SDS011;36794;51.212;6.980;2023-08-06T05:27:27;5.55;;;2.50;;
50821;SDS011;36794;51.212;6.980;2023-08-06T05:29:54;4.32;;;2.35;;
50821;SDS011;36794;51.212;6.980;2023-08-06T05:32:23;5.10;;;2.00;;
50821;SDS011;36794;51.212;6.980;2023-08-06T05:34:49;3.78;;;2.13;;
50821;SDS011;36794;51.212;6.980;2023-08-06T05:37:15;10.90;;;2.05;;
50821;SDS011;36794;51.212;6.980;2023-08-06T05:39:41;4.43;;;1.70;;
50821;SDS011;36794;51.212;6.980;2023-08-06T05:42:07;2.80;;;1.80;;
50821;SDS011;36794;51.212;6.980;2023-08-06T05:44:33;6.15;;;1.92;;
50821;SDS011;36794;51.212;6.980;2023-08-06T05:46:59;8.27;;;2.08;;
50821;SDS011;36794;51.212;6.980;2023-08-06T05:49:25;4.75;;;1.50;;
50821;SDS011;36794;51.212;6.980;2023-08-06T05:51:51;6.00;;;1.50;;
50821;SDS011;36794;51.212;6.980;2023-08-06T05:54:20;4.75;;;1.80;;
50821;SDS011;36794;51.212;6.980;2023-08-06T05:56:45;2.63;;;1.13;;
50821;SDS011;36794;51.212;6.980;2023-08-06T05:59:11;2.10;;;1.15;;
50821;SDS011;36794;51.212;6.980;2023-08-06T06:01:37;6.28;;;1.52;;
50821;SDS011;36794;51.212;6.980;2023-08-06T06:04:03;4.75;;;1.52;;
50821;SDS011;36794;51.212;6.980;2023-08-06T06:06:29;4.32;;;1.40;;
50821;SDS011;36794;51.212;6.980;2023-08-06T06:08:55;2.47;;;1.08;;
50821;SDS011;36794;51.212;6.980;2023-08-06T06:11:21;4.10;;;1.30;;
50821;SDS011;36794;51.212;6.980;2023-08-06T06:13:50;3.67;;;1.20;;
50821;SDS011;36794;51.212;6.980;2023-08-06T06:16:17;4.85;;;1.25;;
50821;SDS011;36794;51.212;6.980;2023-08-06T06:18:43;3.30;;;1.60;;
50821;SDS011;36794;51.212;6.980;2023-08-06T06:21:09;1.92;;;1.20;;
50821;SDS011;36794;51.212;6.980;2023-08-06T06:23:35;2.97;;;1.38;;
50821;SDS011;36794;51.212;6.980;2023-08-06T06:26:01;2.92;;;2.22;;
50821;SDS011;36794;51.212;6.980;2023-08-06T06:28:27;3.42;;;1.30;;
50821;SDS011;36794;51.212;6.980;2023-08-06T06:30:53;6.00;;;1.42;;
50821;SDS011;36794;51.212;6.980;2023-08-06T06:33:19;5.20;;;1.00;;
50821;SDS011;36794;51.212;6.980;2023-08-06T06:35:45;2.25;;;1.20;;
50821;SDS011;36794;51.212;6.980;2023-08-06T06:38:11;2.38;;;1.10;;
50821;SDS011;36794;51.212;6.980;2023-08-06T06:40:37;2.83;;;1.35;;
50821;SDS011;36794;51.212;6.980;2023-08-06T06:43:03;5.18;;;1.70;;
50821;SDS011;36794;51.212;6.980;2023-08-06T06:45:29;3.72;;;1.02;;
50821;SDS011;36794;51.212;6.980;2023-08-06T06:47:55;2.60;;;0.80;;
50821;SDS011;36794;51.212;6.980;2023-08-06T06:50:21;3.40;;;0.80;;
50821;SDS011;36794;51.212;6.980;2023-08-06T06:52:47;3.42;;;0.90;;
50821;SDS011;36794;51.212;6.980;2023-08-06T06:55:13;4.20;;;1.08;;
50821;SDS011;36794;51.212;6.980;2023-08-06T06:57:39;3.72;;;0.63;;
50821;SDS011;36794;51.212;6.980;2023-08-06T07:00:05;0.88;;;0.50;;
50821;SDS011;36794;51.212;6.980;2023-08-06T07:02:31;0.95;;;0.40;;
50821;SDS011;36794;51.212;6.980;2023-08-06T07:04:57;1.38;;;0.40;;
50821;SDS011;36794;51.212;6.980;2023-08-06T07:07:23;2.65;;;0.57;;
50821;SDS011;36794;51.212;6.980;2023-08-06T07:09:49;1.67;;;0.60;;
50821;SDS011;36794;51.212;6.980;2023-08-06T07:12:15;0.77;;;0.55;;
50821;SDS011;36794;51.212;6.980;2023-08-06T07:14:41;2.70;;;0.40;;
50821;SDS011;36794;51.212;6.980;2023-08-06T07:17:07;2.75;;;0.52;;
50821;SDS011;36794;51.212;6.980;2023-08-06T07:19:33;0.93;;;0.50;;
50821;SDS011;36794;51.212;6.980;2023-08-06T07:21:59;4.35;;;0.70;;
50821;SDS011;36794;51.212;6.980;2023-08-06T07:24:25;2.80;;;0.60;;
50821;SDS011;36794;51.212;6.980;2023-08-06T07:26:51;1.20;;;0.82;;
50821;SDS011;36794;51.212;6.980;2023-08-06T07:29:17;0.90;;;0.60;;
50821;SDS011;36794;51.212;6.980;2023-08-06T07:31:46;1.08;;;0.70;;
50821;SDS011;36794;51.212;6.980;2023-08-06T07:34:12;1.30;;;0.75;;
50821;SDS011;36794;51.212;6.980;2023-08-06T07:36:38;1.92;;;0.75;;
50821;SDS011;36794;51.212;6.980;2023-08-06T07:39:04;1.13;;;0.80;;
50821;SDS011;36794;51.212;6.980;2023-08-06T07:41:31;1.45;;;0.63;;
50821;SDS011;36794;51.212;6.980;2023-08-06T07:43:57;1.75;;;0.80;;
50821;SDS011;36794;51.212;6.980;2023-08-06T07:46:23;2.75;;;0.95;;
50821;SDS011;36794;51.212;6.980;2023-08-06T07:48:49;1.83;;;0.77;;
50821;SDS011;36794;51.212;6.980;2023-08-06T07:51:15;1.60;;;0.93;;
50821;SDS011;36794;51.212;6.980;2023-08-06T07:53:41;3.42;;;1.27;;
50821;SDS011;36794;51.212;6.980;2023-08-06T07:56:07;5.15;;;1.30;;
50821;SDS011;36794;51.212;6.980;2023-08-06T07:58:33;5.38;;;1.30;;
50821;SDS011;36794;51.212;6.980;2023-08-06T08:00:59;3.70;;;1.23;;
50821;SDS011;36794;51.212;6.980;2023-08-06T08:03:25;2.45;;;0.95;;
50821;SDS011;36794;51.212;6.980;2023-08-06T08:05:53;3.60;;;0.95;;
50821;SDS011;36794;51.212;6.980;2023-08-06T08:08:21;1.98;;;1.30;;
50821;SDS011;36794;51.212;6.980;2023-08-06T08:10:47;2.03;;;1.25;;
50821;SDS011;36794;51.212;6.980;2023-08-06T08:13:13;2.53;;;0.80;;
50821;SDS011;36794;51.212;6.980;2023-08-06T08:15:39;2.25;;;1.05;;
50821;SDS011;36794;51.212;6.980;2023-08-06T08:18:05;3.13;;;1.00;;
50821;SDS011;36794;51.212;6.980;2023-08-06T08:20:31;2.60;;;1.55;;
50821;SDS011;36794;51.212;6.980;2023-08-06T08:23:01;2.83;;;1.15;;
50821;SDS011;36794;51.212;6.980;2023-08-06T08:25:27;3.90;;;1.20;;
50821;SDS011;36794;51.212;6.980;2023-08-06T08:27:54;2.58;;;1.27;;
50821;SDS011;36794;51.212;6.980;2023-08-06T08:30:20;2.50;;;1.40;;
50821;SDS011;36794;51.212;6.980;2023-08-06T08:32:46;2.33;;;1.20;;
50821;SDS011;36794;51.212;6.980;2023-08-06T08:35:12;1.73;;;1.38;;
50821;SDS011;36794;51.212;6.980;2023-08-06T08:37:38;4.38;;;1.30;;
50821;SDS011;36794;51.212;6.980;2023-08-06T08:40:05;2.55;;;1.42;;
50821;SDS011;36794;51.212;6.980;2023-08-06T08:42:31;3.10;;;1.30;;
50821;SDS011;36794;51.212;6.980;2023-08-06T08:44:57;2.22;;;1.25;;
50821;SDS011;36794;51.212;6.980;2023-08-06T08:47:24;1.80;;;1.00;;
50821;SDS011;36794;51.212;6.980;2023-08-06T08:49:52;2.88;;;1.30;;
50821;SDS011;36794;51.212;6.980;2023-08-06T08:52:22;6.13;;;0.85;;
50821;SDS011;36794;51.212;6.980;2023-08-06T08:54:49;1.42;;;0.90;;
50821;SDS011;36794;51.212;6.980;2023-08-06T08:57:17;4.82;;;1.27;;
50821;SDS011;36794;51.212;6.980;2023-08-06T08:59:43;4.15;;;1.08;;
50821;SDS011;36794;51.212;6.980;2023-08-06T09:02:13;5.88;;;1.27;;
50821;SDS011;36794;51.212;6.980;2023-08-06T09:04:40;3.78;;;1.00;;
50821;SDS011;36794;51.212;6.980;2023-08-06T09:07:08;3.28;;;1.02;;
50821;SDS011;36794;51.212;6.980;2023-08-06T09:09:35;2.35;;;0.88;;
50821;SDS011;36794;51.212;6.980;2023-08-06T09:12:25;2.83;;;1.17;;
50821;SDS011;36794;51.212;6.980;2023-08-06T09:14:50;2.10;;;0.93;;
50821;SDS011;36794;51.212;6.980;2023-08-06T09:17:16;2.47;;;1.05;;
50821;SDS011;36794;51.212;6.980;2023-08-06T09:19:45;2.72;;;1.13;;
50821;SDS011;36794;51.212;6.980;2023-08-06T09:22:13;1.58;;;0.90;;
50821;SDS011;36794;51.212;6.980;2023-08-06T09:24:39;2.92;;;1.00;;
50821;SDS011;36794;51.212;6.980;2023-08-06T09:27:10;3.17;;;1.23;;
50821;SDS011;36794;51.212;6.980;2023-08-06T09:29:39;3.50;;;1.40;;
50821;SDS011;36794;51.212;6.980;2023-08-06T09:32:05;3.25;;;1.35;;
50821;SDS011;36794;51.212;6.980;2023-08-06T09:34:31;5.75;;;1.88;;
50821;SDS011;36794;51.212;6.980;2023-08-06T09:36:57;5.20;;;1.88;;
50821;SDS011;36794;51.212;6.980;2023-08-06T09:39:27;5.72;;;2.65;;
50821;SDS011;36794;51.212;6.980;2023-08-06T09:41:57;3.53;;;2.30;;
50821;SDS011;36794;51.212;6.980;2023-08-06T09:44:24;6.13;;;2.05;;
50821;SDS011;36794;51.212;6.980;2023-08-06T09:46:51;2.28;;;1.73;;
50821;SDS011;36794;51.212;6.980;2023-08-06T09:49:18;2.90;;;1.70;;
50821;SDS011;36794;51.212;6.980;2023-08-06T09:51:44;1.85;;;1.15;;
50821;SDS011;36794;51.212;6.980;2023-08-06T09:54:12;3.75;;;1.45;;
50821;SDS011;36794;51.212;6.980;2023-08-06T09:56:38;5.03;;;1.48;;
50821;SDS011;36794;51.212;6.980;2023-08-06T09:59:05;3.28;;;1.40;;
50821;SDS011;36794;51.212;6.980;2023-08-06T10:01:35;6.03;;;1.90;;
50821;SDS011;36794;51.212;6.980;2023-08-06T10:04:02;4.38;;;2.50;;
50821;SDS011;36794;51.212;6.980;2023-08-06T10:06:28;5.13;;;3.53;;
50821;SDS011;36794;51.212;6.980;2023-08-06T10:08:55;6.85;;;3.90;;
50821;SDS011;36794;51.212;6.980;2023-08-06T10:11:21;8.82;;;4.43;;
50821;SDS011;36794;51.212;6.980;2023-08-06T10:13:48;9.80;;;4.00;;
50821;SDS011;36794;51.212;6.980;2023-08-06T10:16:14;7.95;;;3.95;;
50821;SDS011;36794;51.212;6.980;2023-08-06T10:18:41;11.50;;;4.35;;
50821;SDS011;36794;51.212;6.980;2023-08-06T10:21:08;12.07;;;5.20;;
50821;SDS011;36794;51.212;6.980;2023-08-06T10:23:35;8.95;;;4.80;;
50821;SDS011;36794;51.212;6.980;2023-08-06T10:26:03;9.55;;;5.07;;
50821;SDS011;36794;51.212;6.980;2023-08-06T10:28:38;8.05;;;5.00;;
50821;SDS011;36794;51.212;6.980;2023-08-06T10:31:13;10.85;;;4.32;;
50821;SDS011;36794;51.212;6.980;2023-08-06T10:33:43;9.63;;;4.22;;
50821;SDS011;36794;51.212;6.980;2023-08-06T10:36:09;10.45;;;4.85;;
50821;SDS011;36794;51.212;6.980;2023-08-06T10:38:36;7.43;;;4.30;;
50821;SDS011;36794;51.212;6.980;2023-08-06T10:41:09;6.72;;;3.72;;
50821;SDS011;36794;51.212;6.980;2023-08-06T10:43:40;11.13;;;3.88;;
50821;SDS011;36794;51.212;6.980;2023-08-06T10:46:21;7.85;;;3.30;;
50821;SDS011;36794;51.212;6.980;2023-08-06T10:48:47;7.95;;;2.90;;
50821;SDS011;36794;51.212;6.980;2023-08-06T10:51:13;5.28;;;2.63;;
50821;SDS011;36794;51.212;6.980;2023-08-06T10:53:48;6.05;;;2.58;;
50821;SDS011;36794;51.212;6.980;2023-08-06T10:58:40;3.22;;;1.75;;
50821;SDS011;36794;51.212;6.980;2023-08-06T11:01:06;7.20;;;1.55;;
50821;SDS011;36794;51.212;6.980;2023-08-06T11:03:33;1.90;;;1.27;;
50821;SDS011;36794;51.212;6.980;2023-08-06T11:05:59;2.17;;;1.15;;
50821;SDS011;36794;51.212;6.980;2023-08-06T11:10:51;2.03;;;0.70;;
50821;SDS011;36794;51.212;6.980;2023-08-06T11:13:17;1.02;;;0.60;;
50821;SDS011;36794;51.212;6.980;2023-08-06T11:15:44;1.55;;;0.70;;
50821;SDS011;36794;51.212;6.980;2023-08-06T11:18:10;0.95;;;0.70;;
50821;SDS011;36794;51.212;6.980;2023-08-06T11:20:36;1.80;;;0.73;;
50821;SDS011;36794;51.212;6.980;2023-08-06T11:23:02;2.97;;;1.20;;
50821;SDS011;36794;51.212;6.980;2023-08-06T11:25:29;4.65;;;1.30;;
50821;SDS011;36794;51.212;6.980;2023-08-06T11:27:55;2.42;;;1.00;;
50821;SDS011;36794;51.212;6.980;2023-08-06T11:30:21;2.38;;;1.38;;
50821;SDS011;36794;51.212;6.980;2023-08-06T11:32:47;1.90;;;1.38;;
50821;SDS011;36794;51.212;6.980;2023-08-06T11:35:17;3.53;;;1.50;;
50821;SDS011;36794;51.212;6.980;2023-08-06T11:37:44;3.40;;;1.45;;
50821;SDS011;36794;51.212;6.980;2023-08-06T11:40:10;1.98;;;1.60;;
50821;SDS011;36794;51.212;6.980;2023-08-06T11:42:37;3.60;;;1.90;;
50821;SDS011;36794;51.212;6.980;2023-08-06T11:45:03;4.22;;;1.98;;
50821;SDS011;36794;51.212;6.980;2023-08-06T11:47:30;4.97;;;1.40;;
50821;SDS011;36794;51.212;6.980;2023-08-06T11:49:56;2.42;;;1.73;;
50821;SDS011;36794;51.212;6.980;2023-08-06T11:52:25;4.05;;;1.70;;
50821;SDS011;36794;51.212;6.980;2023-08-06T11:55:04;5.13;;;1.80;;
50821;SDS011;36794;51.212;6.980;2023-08-06T11:57:37;3.72;;;1.90;;
50821;SDS011;36794;51.212;6.980;2023-08-06T12:00:11;4.07;;;1.80;;
50821;SDS011;36794;51.212;6.980;2023-08-06T12:02:41;5.07;;;2.30;;
50821;SDS011;36794;51.212;6.980;2023-08-06T12:07:37;4.22;;;1.58;;
50821;SDS011;36794;51.212;6.980;2023-08-06T12:10:04;3.63;;;1.80;;
50821;SDS011;36794;51.212;6.980;2023-08-06T12:12:30;6.32;;;1.65;;
50821;SDS011;36794;51.212;6.980;2023-08-06T12:14:56;2.70;;;1.63;;
50821;SDS011;36794;51.212;6.980;2023-08-06T12:17:25;5.15;;;1.77;;
50821;SDS011;36794;51.212;6.980;2023-08-06T12:19:51;4.65;;;1.83;;
50821;SDS011;36794;51.212;6.980;2023-08-06T12:22:17;6.97;;;2.20;;
50821;SDS011;36794;51.212;6.980;2023-08-06T12:24:45;4.65;;;1.63;;
50821;SDS011;36794;51.212;6.980;2023-08-06T12:27:12;4.28;;;1.98;;
50821;SDS011;36794;51.212;6.980;2023-08-06T12:29:42;5.85;;;1.88;;
50821;SDS011;36794;51.212;6.980;2023-08-06T12:32:11;3.22;;;1.80;;
50821;SDS011;36794;51.212;6.980;2023-08-06T12:34:40;3.97;;;2.33;;
50821;SDS011;36794;51.212;6.980;2023-08-06T12:37:06;9.25;;;2.50;;
50821;SDS011;36794;51.212;6.980;2023-08-06T12:39:33;5.53;;;2.33;;
50821;SDS011;36794;51.212;6.980;2023-08-06T12:41:59;3.83;;;2.28;;
50821;SDS011;36794;51.212;6.980;2023-08-06T12:44:25;4.47;;;2.47;;
50821;SDS011;36794;51.212;6.980;2023-08-06T12:46:51;4.68;;;2.30;;
50821;SDS011;36794;51.212;6.980;2023-08-06T12:49:18;3.10;;;2.10;;
50821;SDS011;36794;51.212;6.980;2023-08-06T12:51:46;4.13;;;1.80;;
50821;SDS011;36794;51.212;6.980;2023-08-06T12:54:11;5.03;;;1.88;;
50821;SDS011;36794;51.212;6.980;2023-08-06T12:56:37;2.33;;;1.40;;
50821;SDS011;36794;51.212;6.980;2023-08-06T12:59:03;7.13;;;1.70;;
50821;SDS011;36794;51.212;6.980;2023-08-06T13:01:29;5.25;;;1.80;;
50821;SDS011;36794;51.212;6.980;2023-08-06T13:03:55;5.15;;;1.55;;
50821;SDS011;36794;51.212;6.980;2023-08-06T13:06:21;3.90;;;1.92;;
50821;SDS011;36794;51.212;6.980;2023-08-06T13:08:47;2.63;;;1.38;;
50821;SDS011;36794;51.212;6.980;2023-08-06T13:11:13;8.02;;;2.22;;
50821;SDS011;36794;51.212;6.980;2023-08-06T13:13:39;4.38;;;2.40;;
50821;SDS011;36794;51.212;6.980;2023-08-06T13:16:05;8.30;;;2.90;;
50821;SDS011;36794;51.212;6.980;2023-08-06T13:18:31;8.10;;;2.70;;
50821;SDS011;36794;51.212;6.980;2023-08-06T13:20:57;12.27;;;2.95;;
50821;SDS011;36794;51.212;6.980;2023-08-06T13:23:23;5.82;;;2.00;;
50821;SDS011;36794;51.212;6.980;2023-08-06T13:25:49;4.97;;;2.30;;
50821;SDS011;36794;51.212;6.980;2023-08-06T13:28:15;6.43;;;3.20;;
50821;SDS011;36794;51.212;6.980;2023-08-06T13:30:41;11.43;;;3.42;;
50821;SDS011;36794;51.212;6.980;2023-08-06T13:33:08;6.32;;;3.20;;
50821;SDS011;36794;51.212;6.980;2023-08-06T13:35:34;8.38;;;2.75;;
50821;SDS011;36794;51.212;6.980;2023-08-06T13:38:00;6.80;;;2.80;;
50821;SDS011;36794;51.212;6.980;2023-08-06T13:40:28;8.05;;;2.92;;
50821;SDS011;36794;51.212;6.980;2023-08-06T13:42:54;7.78;;;2.70;;
50821;SDS011;36794;51.212;6.980;2023-08-06T13:45:20;8.80;;;3.00;;
50821;SDS011;36794;51.212;6.980;2023-08-06T13:47:47;8.60;;;2.78;;
50821;SDS011;36794;51.212;6.980;2023-08-06T13:50:13;7.07;;;2.55;;
50821;SDS011;36794;51.212;6.980;2023-08-06T13:52:39;3.50;;;2.08;;
50821;SDS011;36794;51.212;6.980;2023-08-06T13:55:05;7.07;;;2.03;;
50821;SDS011;36794;51.212;6.980;2023-08-06T13:57:32;8.63;;;2.42;;
50821;SDS011;36794;51.212;6.980;2023-08-06T13:59:58;5.28;;;2.15;;
50821;SDS011;36794;51.212;6.980;2023-08-06T14:02:24;7.55;;;2.22;;
50821;SDS011;36794;51.212;6.980;2023-08-06T14:04:50;5.53;;;1.83;;
50821;SDS011;36794;51.212;6.980;2023-08-06T14:07:16;6.57;;;2.13;;
50821;SDS011;36794;51.212;6.980;2023-08-06T14:09:42;3.85;;;2.17;;
50821;SDS011;36794;51.212;6.980;2023-08-06T14:12:09;5.20;;;2.20;;
50821;SDS011;36794;51.212;6.980;2023-08-06T14:14:35;5.82;;;2.15;;
50821;SDS011;36794;51.212;6.980;2023-08-06T14:17:01;4.57;;;2.28;;
50821;SDS011;36794;51.212;6.980;2023-08-06T14:19:27;3.97;;;1.90;;
50821;SDS011;36794;51.212;6.980;2023-08-06T14:21:54;4.30;;;1.88;;
50821;SDS011;36794;51.212;6.980;2023-08-06T14:24:20;6.18;;;2.45;;
50821;SDS011;36794;51.212;6.980;2023-08-06T14:26:46;5.32;;;2.25;;
50821;SDS011;36794;51.212;6.980;2023-08-06T14:29:12;4.88;;;2.15;;
50821;SDS011;36794;51.212;6.980;2023-08-06T14:31:38;4.18;;;1.80;;
50821;SDS011;36794;51.212;6.980;2023-08-06T14:34:04;7.13;;;2.00;;
50821;SDS011;36794;51.212;6.980;2023-08-06T14:36:30;7.47;;;2.10;;
50821;SDS011;36794;51.212;6.980;2023-08-06T14:38:56;4.93;;;1.88;;
50821;SDS011;36794;51.212;6.980;2023-08-06T14:41:22;4.97;;;2.47;;
50821;SDS011;36794;51.212;6.980;2023-08-06T14:43:49;9.93;;;2.33;;
50821;SDS011;36794;51.212;6.980;2023-08-06T14:46:15;4.78;;;2.30;;
50821;SDS011;36794;51.212;6.980;2023-08-06T14:48:41;6.07;;;2.38;;
50821;SDS011;36794;51.212;6.980;2023-08-06T14:51:10;3.60;;;1.70;;
50821;SDS011;36794;51.212;6.980;2023-08-06T14:53:35;4.28;;;1.75;;
50821;SDS011;36794;51.212;6.980;2023-08-06T14:56:02;4.57;;;1.70;;
50821;SDS011;36794;51.212;6.980;2023-08-06T14:58:27;5.03;;;1.98;;
50821;SDS011;36794;51.212;6.980;2023-08-06T15:00:53;4.60;;;1.83;;
50821;SDS011;36794;51.212;6.980;2023-08-06T15:03:19;3.70;;;1.45;;